createdAt,value
2018-09-11T00:00:49.681Z,6.33
2018-09-11T00:03:18.597Z,9.17
2018-09-11T00:05:46.984Z,7.60
2018-09-11T00:08:15.412Z,3.77
2018-09-11T00:10:44.254Z,7.27
2018-09-11T00:13:12.643Z,4.83
2018-09-11T00:15:41.067Z,7.10
2018-09-11T00:18:09.500Z,5.53
2018-09-11T00:20:38.266Z,7.73
2018-09-11T00:23:07.202Z,12.83
2018-09-11T00:25:36.003Z,4.07
2018-09-11T00:28:04.811Z,7.57
2018-09-11T00:30:33.610Z,6.00
2018-09-11T00:33:01.987Z,5.70
2018-09-11T00:35:30.793Z,12.00
2018-09-11T00:37:59.581Z,6.03
2018-09-11T00:40:28.403Z,7.47
2018-09-11T00:42:57.241Z,9.10
2018-09-11T00:45:25.606Z,7.03
2018-09-11T00:47:54.438Z,10.30
2018-09-11T00:50:23.216Z,9.80
2018-09-11T00:52:51.595Z,8.87
2018-09-11T00:55:20.027Z,11.33
2018-09-11T00:57:48.852Z,9.43
2018-09-11T01:00:17.266Z,8.70
2018-09-11T01:02:45.637Z,11.57
2018-09-11T01:05:14.084Z,10.23
2018-09-11T01:07:42.874Z,10.43
2018-09-11T01:10:12.070Z,10.77
2018-09-11T01:12:40.983Z,7.50
2018-09-11T01:15:10.424Z,9.97
2018-09-11T01:17:39.136Z,11.53
2018-09-11T01:20:08.728Z,10.17
2018-09-11T01:22:37.600Z,7.60
2018-09-11T01:25:06.041Z,8.40
2018-09-11T01:27:34.452Z,10.00
2018-09-11T01:30:02.896Z,8.60
2018-09-11T01:32:31.301Z,5.90
2018-09-11T01:34:59.694Z,10.17
2018-09-11T01:37:28.562Z,8.77
2018-09-11T01:39:57.361Z,7.40
2018-09-11T01:42:25.778Z,8.83
2018-09-11T01:44:54.139Z,8.73
2018-09-11T01:47:22.581Z,6.67
2018-09-11T01:49:50.979Z,7.40
2018-09-11T01:52:19.816Z,8.97
2018-09-11T01:54:48.188Z,11.47
2018-09-11T01:57:16.957Z,11.00
2018-09-11T01:59:45.761Z,10.60
2018-09-11T02:02:14.130Z,14.33
2018-09-11T02:04:42.887Z,7.77
2018-09-11T02:07:11.262Z,11.10
2018-09-11T02:09:39.977Z,10.60
2018-09-11T02:12:08.796Z,9.97
2018-09-11T02:14:37.568Z,19.23
2018-09-11T02:17:05.977Z,7.73
2018-09-11T02:19:34.721Z,10.13
2018-09-11T02:22:03.606Z,14.07
2018-09-11T02:24:32.372Z,12.70
2018-09-11T02:27:01.136Z,10.47
2018-09-11T02:29:29.523Z,13.87
2018-09-11T02:31:57.946Z,11.37
2018-09-11T02:34:26.658Z,9.43
2018-09-11T02:36:55.054Z,17.80
2018-09-11T02:39:23.995Z,14.17
2018-09-11T02:41:52.352Z,11.73
2018-09-11T02:44:21.063Z,11.80
2018-09-11T02:46:49.777Z,11.07
2018-09-11T02:49:18.569Z,10.17
2018-09-11T02:51:47.400Z,10.40
2018-09-11T02:54:16.183Z,11.03
2018-09-11T02:56:44.558Z,10.07
2018-09-11T02:59:13.280Z,10.10
2018-09-11T03:01:42.082Z,15.70
2018-09-11T03:04:10.424Z,10.77
2018-09-11T03:06:38.840Z,17.27
2018-09-11T03:09:07.354Z,11.93
2018-09-11T03:11:36.274Z,11.00
2018-09-11T03:14:05.060Z,11.63
2018-09-11T03:16:33.797Z,9.90
2018-09-11T03:19:02.657Z,8.87
2018-09-11T03:21:31.845Z,10.90
2018-09-11T03:24:00.791Z,11.97
2018-09-11T03:26:29.520Z,12.17
2018-09-11T03:28:58.312Z,9.87
2018-09-11T03:31:27.062Z,10.23
2018-09-11T03:33:55.987Z,13.77
2018-09-11T03:36:24.388Z,12.87
2018-09-11T03:38:53.699Z,11.43
2018-09-11T03:41:22.095Z,11.23
2018-09-11T03:43:50.843Z,9.13
2018-09-11T03:46:19.641Z,12.27
2018-09-11T03:48:48.492Z,13.57
2018-09-11T03:51:35.057Z,10.90
2018-09-11T03:54:03.866Z,10.63
2018-09-11T03:56:32.230Z,14.77
2018-09-11T03:59:00.952Z,11.57
2018-09-11T04:01:29.699Z,14.93
2018-09-11T04:03:58.486Z,10.97
2018-09-11T04:06:26.865Z,15.77
2018-09-11T04:08:55.618Z,14.20
2018-09-11T04:11:24.400Z,11.13
2018-09-11T04:13:53.186Z,12.23
2018-09-11T04:16:21.986Z,12.73
2018-09-11T04:18:50.775Z,10.87
2018-09-11T04:21:19.173Z,13.50
2018-09-11T04:36:06.740Z,13.95
2018-09-11T04:45:58.609Z,16.40
2018-09-11T04:48:27.003Z,10.23
2018-09-11T04:50:55.738Z,13.20
2018-09-11T04:53:24.599Z,10.90
2018-09-11T04:58:20.889Z,13.37
2018-09-11T05:00:49.297Z,13.70
2018-09-11T05:03:17.649Z,15.57
2018-09-11T05:05:46.033Z,15.70
2018-09-11T05:08:14.751Z,14.43
2018-09-11T05:10:43.160Z,11.93
2018-09-11T05:13:11.540Z,12.23
2018-09-11T05:15:40.320Z,11.50
2018-09-11T05:18:08.762Z,13.33
2018-09-11T05:20:37.562Z,13.53
2018-09-11T05:23:06.134Z,11.33
2018-09-11T05:25:34.912Z,11.57
2018-09-11T05:28:03.261Z,10.83
2018-09-11T05:30:32.094Z,12.13
2018-09-11T05:33:00.825Z,15.67
2018-09-11T05:35:29.645Z,10.73
2018-09-11T05:37:58.227Z,9.23
2018-09-11T05:40:27.015Z,9.20
2018-09-11T05:42:55.756Z,10.47
2018-09-11T05:45:24.509Z,10.13
2018-09-11T05:47:53.268Z,12.03
2018-09-11T05:50:21.638Z,8.77
2018-09-11T05:52:50.405Z,12.83
2018-09-11T05:55:18.794Z,13.77
2018-09-11T05:57:47.547Z,9.07
2018-09-11T06:00:16.376Z,9.33
2018-09-11T06:02:45.090Z,7.00
2018-09-11T06:05:13.868Z,9.97
2018-09-11T06:07:42.245Z,12.13
2018-09-11T06:10:11.045Z,7.93
2018-09-11T06:12:39.420Z,12.53
2018-09-11T06:15:08.236Z,5.77
2018-09-11T06:17:36.976Z,10.50
2018-09-11T06:20:06.628Z,7.10
2018-09-11T06:22:35.394Z,8.00
2018-09-11T06:25:04.126Z,5.83
2018-09-11T06:27:32.516Z,6.03
2018-09-11T06:30:00.865Z,10.37
2018-09-11T06:32:29.649Z,8.87
2018-09-11T06:34:58.000Z,5.33
2018-09-11T06:37:26.803Z,8.00
2018-09-11T06:39:55.632Z,6.53
2018-09-11T06:42:24.537Z,10.10
2018-09-11T06:44:52.912Z,10.50
2018-09-11T06:47:21.664Z,7.60
2018-09-11T06:49:50.057Z,7.90
2018-09-11T06:52:18.457Z,9.10
2018-09-11T06:54:47.209Z,9.20
2018-09-11T06:57:16.043Z,8.47
2018-09-11T06:59:44.765Z,8.90
2018-09-11T07:02:13.157Z,11.03
2018-09-11T07:04:41.958Z,8.47
2018-09-11T07:07:10.736Z,10.10
2018-09-11T07:09:39.543Z,8.83
2018-09-11T07:12:07.886Z,8.33
2018-09-11T07:14:36.675Z,11.00
2018-09-11T07:17:05.502Z,14.07
2018-09-11T07:19:34.409Z,8.10
2018-09-11T07:22:03.171Z,12.70
2018-09-11T07:24:31.943Z,8.53
2018-09-11T07:27:00.647Z,11.77
2018-09-11T07:29:29.116Z,11.20
2018-09-11T07:31:57.907Z,6.73
2018-09-11T07:34:26.300Z,12.17
2018-09-11T07:36:55.071Z,10.43
2018-09-11T07:39:23.508Z,10.10
2018-09-11T07:41:51.917Z,9.03
2018-09-11T07:44:20.668Z,8.80
2018-09-11T07:46:49.461Z,11.33
2018-09-11T07:49:17.813Z,14.33
2018-09-11T07:51:46.579Z,12.77
2018-09-11T07:54:15.281Z,9.43
2018-09-11T07:56:43.631Z,11.13
2018-09-11T07:59:12.401Z,10.97
2018-09-11T08:01:40.841Z,8.80
2018-09-11T08:04:09.572Z,13.10
2018-09-11T08:06:38.367Z,10.23
2018-09-11T08:09:10.668Z,11.60
2018-09-11T08:11:39.431Z,14.17
2018-09-11T08:14:08.105Z,8.70
2018-09-11T08:16:36.456Z,7.57
2018-09-11T08:19:05.254Z,17.97
2018-09-11T08:21:34.066Z,10.20
2018-09-11T08:24:02.839Z,9.70
2018-09-11T08:26:31.525Z,10.63
2018-09-11T08:29:00.295Z,11.70
2018-09-11T08:31:52.416Z,8.63
2018-09-11T08:34:21.220Z,8.33
2018-09-11T08:36:49.637Z,13.00
2018-09-11T08:39:18.446Z,13.43
2018-09-11T08:41:46.843Z,13.40
2018-09-11T08:44:15.214Z,14.07
2018-09-11T08:46:43.649Z,9.07
2018-09-11T08:49:12.352Z,8.10
2018-09-11T08:51:41.094Z,9.53
2018-09-11T08:54:09.429Z,9.07
2018-09-11T08:56:38.216Z,9.97
2018-09-11T08:59:07.087Z,14.17
2018-09-11T09:01:35.940Z,11.67
2018-09-11T09:04:04.779Z,6.33
2018-09-11T09:06:33.565Z,8.47
2018-09-11T09:09:02.796Z,7.13
2018-09-11T09:11:31.586Z,9.67
2018-09-11T09:14:00.346Z,7.53
2018-09-11T09:16:29.065Z,7.60
2018-09-11T09:18:57.849Z,7.33
2018-09-11T09:21:26.624Z,10.77
2018-09-11T09:23:55.381Z,6.97
2018-09-11T09:26:24.211Z,5.20
2018-09-11T09:28:52.989Z,11.97
2018-09-11T09:31:21.795Z,9.40
2018-09-11T09:33:50.557Z,7.07
2018-09-11T09:36:19.339Z,7.97
2018-09-11T09:38:47.702Z,4.90
2018-09-11T09:41:16.467Z,6.57
2018-09-11T09:43:45.306Z,4.30
2018-09-11T09:46:13.641Z,7.87
2018-09-11T09:48:42.371Z,6.87
2018-09-11T09:51:11.087Z,6.97
2018-09-11T09:53:39.437Z,6.87
2018-09-11T09:56:07.846Z,5.57
2018-09-11T09:58:36.587Z,6.53
2018-09-11T10:01:10.504Z,6.00
2018-09-11T10:03:38.925Z,5.53
2018-09-11T10:06:07.308Z,4.77
2018-09-11T10:08:36.103Z,4.40
2018-09-11T10:11:04.954Z,6.57
2018-09-11T10:13:33.774Z,8.20
2018-09-11T10:16:02.201Z,5.17
2018-09-11T10:18:30.578Z,6.30
2018-09-11T10:20:59.343Z,3.67
2018-09-11T10:23:28.049Z,9.07
2018-09-11T10:25:56.786Z,5.87
2018-09-11T10:28:25.549Z,6.87
2018-09-11T10:30:54.376Z,5.83
2018-09-11T10:33:22.735Z,2.97
2018-09-11T10:35:51.938Z,8.30
2018-09-11T10:38:20.688Z,9.43
2018-09-11T10:40:49.443Z,7.53
2018-09-11T10:43:17.833Z,8.20
2018-09-11T10:45:46.606Z,5.63
2018-09-11T10:48:15.383Z,4.77
2018-09-11T10:50:44.214Z,6.40
2018-09-11T10:53:12.651Z,3.50
2018-09-11T10:55:41.527Z,6.33
2018-09-11T10:58:09.907Z,6.33
2018-09-11T11:00:38.670Z,3.30
2018-09-11T11:03:06.993Z,8.00
2018-09-11T11:05:35.767Z,5.63
2018-09-11T11:08:04.605Z,3.57
2018-09-11T11:10:33.466Z,4.53
2018-09-11T11:13:02.735Z,6.57
2018-09-11T11:15:31.663Z,4.60
2018-09-11T11:18:00.426Z,7.90
2018-09-11T11:20:29.163Z,8.17
2018-09-11T11:22:57.890Z,5.50
2018-09-11T11:25:26.683Z,3.60
2018-09-11T11:27:55.421Z,4.53
2018-09-11T11:30:23.786Z,1.83
2018-09-11T11:32:52.549Z,2.73
2018-09-11T11:35:21.263Z,4.43
2018-09-11T11:37:50.086Z,2.63
2018-09-11T11:40:18.814Z,5.60
2018-09-11T11:42:47.619Z,5.23
2018-09-11T11:45:16.431Z,4.27
2018-09-11T11:47:45.303Z,4.33
2018-09-11T11:50:13.699Z,7.07
2018-09-11T11:52:42.546Z,6.83
2018-09-11T11:55:11.332Z,6.70
2018-09-11T11:57:39.738Z,3.90
2018-09-11T12:00:08.581Z,5.30
2018-09-11T12:02:37.392Z,4.80
2018-09-11T12:05:05.817Z,4.37
2018-09-11T12:07:34.579Z,3.73
2018-09-11T12:10:02.992Z,4.80
2018-09-11T12:12:31.408Z,6.07
2018-09-11T12:15:00.583Z,3.87
2018-09-11T12:17:29.365Z,3.60
2018-09-11T12:19:57.722Z,7.50
2018-09-11T12:22:26.534Z,3.47
2018-09-11T12:24:55.268Z,3.93
2018-09-11T12:27:24.082Z,3.83
2018-09-11T12:29:52.481Z,5.63
2018-09-11T12:32:21.267Z,4.47
2018-09-11T12:34:50.067Z,3.20
2018-09-11T12:37:18.848Z,3.63
2018-09-11T12:39:47.567Z,5.20
2018-09-11T12:42:16.324Z,4.50
2018-09-11T12:44:44.722Z,3.07
2018-09-11T12:47:13.287Z,5.97
2018-09-11T12:49:42.546Z,2.63
2018-09-11T12:52:11.584Z,3.13
2018-09-11T12:54:39.943Z,4.40
2018-09-11T12:57:08.349Z,4.27
2018-09-11T12:59:36.828Z,6.83
2018-09-11T13:02:05.248Z,5.07
2018-09-11T13:04:33.614Z,4.60
2018-09-11T13:07:01.988Z,3.23
2018-09-11T13:09:30.815Z,2.17
2018-09-11T13:11:59.254Z,4.93
2018-09-11T13:14:27.992Z,5.33
2018-09-11T13:16:56.787Z,12.50
2018-09-11T13:19:25.537Z,4.20
2018-09-11T13:21:54.342Z,3.40
2018-09-11T13:24:23.129Z,5.07
2018-09-11T13:26:51.924Z,10.23
2018-09-11T13:29:20.689Z,6.03
2018-09-11T13:31:49.034Z,2.97
2018-09-11T13:34:18.123Z,6.33
2018-09-11T13:36:46.890Z,6.07
2018-09-11T13:39:15.631Z,2.33
2018-09-11T13:41:44.372Z,4.73
2018-09-11T13:44:13.109Z,3.23
2018-09-11T13:46:41.923Z,5.23
2018-09-11T13:49:10.753Z,6.80
2018-09-11T13:51:39.869Z,2.93
2018-09-11T13:54:08.636Z,5.60
2018-09-11T13:56:37.406Z,6.87
2018-09-11T13:59:05.860Z,4.87
2018-09-11T14:01:34.591Z,2.77
2018-09-11T14:04:03.616Z,4.40
2018-09-11T14:06:32.333Z,10.40
2018-09-11T14:09:00.762Z,3.17
2018-09-11T14:11:49.520Z,4.90
2018-09-11T14:14:18.262Z,4.63
2018-09-11T14:16:47.051Z,5.33
2018-09-11T14:19:15.895Z,3.27
2018-09-11T14:21:44.277Z,3.93
2018-09-11T14:24:13.548Z,3.57
2018-09-11T14:26:42.272Z,5.43
2018-09-11T14:29:10.675Z,6.27
2018-09-11T14:31:39.437Z,5.20
2018-09-11T14:34:08.160Z,1.80
2018-09-11T14:36:37.352Z,5.77
2018-09-11T14:39:08.518Z,4.67
2018-09-11T14:41:37.454Z,3.30
2018-09-11T14:44:06.259Z,3.60
2018-09-11T14:46:34.681Z,2.23
2018-09-11T14:49:03.162Z,3.43
2018-09-11T14:51:31.566Z,2.63
2018-09-11T14:54:00.291Z,5.10
2018-09-11T14:56:30.529Z,3.10
2018-09-11T14:58:58.962Z,2.97
2018-09-11T15:01:27.738Z,8.20
2018-09-11T15:03:56.655Z,2.63
2018-09-11T15:06:25.403Z,5.07
2018-09-11T15:08:55.929Z,1.90
2018-09-11T15:11:26.485Z,6.33
2018-09-11T15:13:56.910Z,6.70
2018-09-11T15:16:28.414Z,7.20
2018-09-11T15:18:58.908Z,3.60
2018-09-11T15:21:27.539Z,3.60
2018-09-11T15:23:56.329Z,3.30
2018-09-11T15:26:24.730Z,6.00
2018-09-11T15:28:53.061Z,5.00
2018-09-11T15:31:21.913Z,3.80
2018-09-11T15:33:50.366Z,5.43
2018-09-11T15:36:19.066Z,1.63
2018-09-11T15:38:47.848Z,2.70
2018-09-11T15:41:16.590Z,4.93
2018-09-11T15:43:44.999Z,8.50
2018-09-11T15:46:13.759Z,5.17
2018-09-11T15:48:42.967Z,8.97
2018-09-11T15:51:11.825Z,3.47
2018-09-11T15:53:40.597Z,2.23
2018-09-11T15:56:09.338Z,4.13
2018-09-11T15:58:38.104Z,8.53
2018-09-11T16:01:06.523Z,5.00
2018-09-11T16:03:35.728Z,5.83
2018-09-11T16:06:04.483Z,5.47
2018-09-11T16:08:33.287Z,2.93
2018-09-11T16:11:02.183Z,4.27
2018-09-11T16:13:30.559Z,6.40
2018-09-11T16:15:58.910Z,3.43
2018-09-11T16:18:27.337Z,6.70
2018-09-11T16:20:55.758Z,5.60
2018-09-11T16:23:24.525Z,3.90
2018-09-11T16:25:53.329Z,3.97
2018-09-11T16:28:22.039Z,2.43
2018-09-11T16:30:51.469Z,3.47
2018-09-11T16:33:20.496Z,4.97
2018-09-11T16:35:48.957Z,3.93
2018-09-11T16:38:18.308Z,6.17
2018-09-11T16:40:47.372Z,3.10
2018-09-11T16:43:16.250Z,4.63
2018-09-11T16:45:44.625Z,3.27
2018-09-11T16:48:13.006Z,6.47
2018-09-11T16:50:41.380Z,6.60
2018-09-11T16:53:10.198Z,5.37
2018-09-11T16:55:38.681Z,5.53
2018-09-11T16:58:07.443Z,4.77
2018-09-11T17:00:36.188Z,7.37
2018-09-11T17:03:05.005Z,9.23
2018-09-11T17:05:33.372Z,6.37
2018-09-11T17:08:01.806Z,7.10
2018-09-11T17:10:31.219Z,4.57
2018-09-11T17:13:00.015Z,4.83
2018-09-11T17:15:28.397Z,8.97
2018-09-11T17:17:56.845Z,8.33
2018-09-11T17:20:25.581Z,7.80
2018-09-11T17:22:54.428Z,5.63
2018-09-11T17:25:23.167Z,7.50
2018-09-11T17:27:52.209Z,4.80
2018-09-11T17:30:20.980Z,5.97
2018-09-11T17:32:49.748Z,7.47
2018-09-11T17:35:18.146Z,6.50
2018-09-11T17:37:46.907Z,3.50
2018-09-11T17:40:15.741Z,7.43
2018-09-11T17:42:44.172Z,9.20
2018-09-11T17:45:13.270Z,8.43
2018-09-11T17:47:42.001Z,4.30
2018-09-11T17:50:10.800Z,4.47
2018-09-11T17:52:39.627Z,8.60
2018-09-11T17:55:08.000Z,9.07
2018-09-11T17:57:36.380Z,4.80
2018-09-11T18:00:05.409Z,9.27
2018-09-11T18:02:34.956Z,9.13
2018-09-11T18:05:04.799Z,8.27
2018-09-11T18:07:33.621Z,5.50
2018-09-11T18:10:02.022Z,4.10
2018-09-11T18:12:30.806Z,7.43
2018-09-11T18:14:59.146Z,4.43
2018-09-11T18:17:27.888Z,7.90
2018-09-11T18:19:56.687Z,4.67
2018-09-11T18:22:26.207Z,5.57
2018-09-11T18:24:55.232Z,3.30
2018-09-11T18:27:24.091Z,6.00
2018-09-11T18:29:52.559Z,8.20
2018-09-11T18:32:20.914Z,7.67
2018-09-11T18:34:49.433Z,5.97
2018-09-11T18:37:17.844Z,5.17
2018-09-11T18:39:46.130Z,4.10
2018-09-11T18:42:14.928Z,9.20
2018-09-11T18:44:43.699Z,5.33
2018-09-11T18:47:12.489Z,8.57
2018-09-11T18:49:41.261Z,9.20
2018-09-11T18:52:10.043Z,5.27
2018-09-11T18:54:38.567Z,3.90
2018-09-11T18:57:07.023Z,5.47
2018-09-11T18:59:35.816Z,4.77
2018-09-11T19:02:04.187Z,7.90
2018-09-11T19:04:33.860Z,6.23
2018-09-11T19:07:02.288Z,8.80
2018-09-11T19:09:31.541Z,6.60
2018-09-11T19:12:00.164Z,6.63
2018-09-11T19:14:28.751Z,8.70
2018-09-11T19:16:58.011Z,3.50
2018-09-11T19:19:26.482Z,5.50
2018-09-11T19:21:55.429Z,4.27
2018-09-11T19:24:24.696Z,7.90
2018-09-11T19:26:53.663Z,5.67
2018-09-11T19:29:22.479Z,7.67
2018-09-11T19:31:51.631Z,6.60
2018-09-11T19:34:20.715Z,5.77
2018-09-11T19:36:49.096Z,5.80
2018-09-11T19:39:17.881Z,4.13
2018-09-11T19:41:46.301Z,4.53
2018-09-11T19:44:15.160Z,5.10
2018-09-11T19:46:43.549Z,6.67
2018-09-11T19:49:12.622Z,7.27
2018-09-11T19:51:41.041Z,3.80
2018-09-11T19:54:09.372Z,5.37
2018-09-11T19:56:38.162Z,6.57
2018-09-11T19:59:06.551Z,4.40
2018-09-11T20:01:53.421Z,5.60
2018-09-11T20:04:22.188Z,3.03
2018-09-11T20:06:50.531Z,5.57
2018-09-11T20:09:19.501Z,4.47
2018-09-11T20:11:48.226Z,5.10
2018-09-11T20:14:16.967Z,7.33
2018-09-11T20:16:45.800Z,5.00
2018-09-11T20:19:14.267Z,6.27
2018-09-11T20:21:42.655Z,4.97
2018-09-11T20:24:11.436Z,6.80
2018-09-11T20:26:40.166Z,4.93
2018-09-11T20:29:08.971Z,6.80
2018-09-11T20:31:37.729Z,3.83
2018-09-11T20:34:06.518Z,6.70
2018-09-11T20:36:34.935Z,5.10
2018-09-11T20:39:04.606Z,5.40
2018-09-11T20:41:33.001Z,4.97
2018-09-11T20:44:01.395Z,4.13
2018-09-11T20:46:30.146Z,6.03
2018-09-11T20:48:58.515Z,3.70
2018-09-11T20:51:26.868Z,5.80
2018-09-11T20:53:55.241Z,6.30
2018-09-11T20:56:24.043Z,7.17
2018-09-11T20:58:52.827Z,5.80
2018-09-11T21:01:21.596Z,4.23
2018-09-11T21:03:50.004Z,6.30
2018-09-11T21:06:18.394Z,4.70
2018-09-11T21:08:46.768Z,4.40
2018-09-11T21:11:15.165Z,7.83
2018-09-11T21:13:44.231Z,7.37
2018-09-11T21:16:12.681Z,5.40
2018-09-11T21:18:41.088Z,4.43
2018-09-11T21:21:09.861Z,4.63
2018-09-11T21:23:38.746Z,4.70
2018-09-11T21:26:07.505Z,6.60
2018-09-11T21:28:35.892Z,6.00
2018-09-11T21:31:04.726Z,4.40
2018-09-11T21:33:33.500Z,3.40
2018-09-11T21:36:02.315Z,5.10
2018-09-11T21:38:31.123Z,4.90
2018-09-11T21:40:59.911Z,9.90
2018-09-11T21:43:28.675Z,6.17
2018-09-11T21:45:57.429Z,4.30
2018-09-11T21:48:25.765Z,5.63
2018-09-11T21:50:54.612Z,4.93
2018-09-11T21:53:23.345Z,4.90
2018-09-11T21:55:52.113Z,3.07
2018-09-11T21:58:20.878Z,13.93
2018-09-11T22:00:55.016Z,7.97
2018-09-11T22:03:23.755Z,4.90
2018-09-11T22:05:52.139Z,3.50
2018-09-11T22:08:20.540Z,3.43
2018-09-11T22:10:49.282Z,3.40
2018-09-11T22:13:18.055Z,8.10
2018-09-11T22:15:46.829Z,2.83
2018-09-11T22:18:15.588Z,5.67
2018-09-11T22:20:44.406Z,7.93
2018-09-11T22:23:13.192Z,3.63
2018-09-11T22:25:41.544Z,4.67
2018-09-11T22:28:09.936Z,10.07
2018-09-11T22:30:38.648Z,7.00
2018-09-11T22:33:07.442Z,7.13
2018-09-11T22:35:35.810Z,5.30
2018-09-11T22:38:04.654Z,4.87
2018-09-11T22:40:33.093Z,3.17
2018-09-11T22:43:01.469Z,3.70
2018-09-11T22:45:31.298Z,4.07
2018-09-11T22:48:00.695Z,2.80
2018-09-11T22:50:29.191Z,5.53
2018-09-11T22:52:57.896Z,5.07
2018-09-11T22:55:26.642Z,5.37
2018-09-11T22:57:55.457Z,5.47
2018-09-11T23:00:24.236Z,7.30
2018-09-11T23:02:52.970Z,4.00
2018-09-11T23:05:21.718Z,3.43
2018-09-11T23:07:50.496Z,5.43
2018-09-11T23:10:19.236Z,5.53
2018-09-11T23:12:47.726Z,4.63
2018-09-11T23:15:16.120Z,5.43
2018-09-11T23:17:44.920Z,10.43
2018-09-11T23:20:13.254Z,3.80
2018-09-11T23:22:41.683Z,4.10
2018-09-11T23:25:10.375Z,7.40
2018-09-11T23:27:38.792Z,7.17
2018-09-11T23:30:07.524Z,7.17
2018-09-11T23:32:35.920Z,5.53
2018-09-11T23:35:04.699Z,4.27
2018-09-11T23:37:33.069Z,7.13
2018-09-11T23:40:01.453Z,5.30
2018-09-11T23:42:30.279Z,8.80
2018-09-11T23:44:58.999Z,3.87
2018-09-11T23:47:27.811Z,6.57
2018-09-11T23:49:56.619Z,6.13
2018-09-11T23:52:25.398Z,4.30
2018-09-11T23:54:54.152Z,4.63
2018-09-11T23:57:22.909Z,6.00
2018-09-11T23:59:51.696Z,5.67
